createdAt,value
2019-01-05T00:01:09.344Z,101114.70
2019-01-05T00:03:58.544Z,101101.86
2019-01-05T00:06:54.330Z,101099.67
2019-01-05T00:09:44.736Z,101093.67
2019-01-05T00:12:33.787Z,101097.92
2019-01-05T00:15:42.677Z,101101.09
2019-01-05T00:18:42.209Z,101093.89
2019-01-05T00:21:31.441Z,101091.76
2019-01-05T00:24:22.278Z,101090.89
2019-01-05T00:27:16.977Z,101087.66
2019-01-05T00:30:07.721Z,101088.75
2019-01-05T00:33:09.262Z,101083.07
2019-01-05T00:36:21.492Z,101080.26
2019-01-05T00:39:18.159Z,101074.39
2019-01-05T00:42:08.264Z,101073.06
2019-01-05T00:45:04.557Z,101067.09
2019-01-05T00:47:53.987Z,101062.05
2019-01-05T00:50:51.687Z,101062.09
2019-01-05T00:53:40.763Z,101062.05
2019-01-05T00:56:30.009Z,101065.36
2019-01-05T00:59:30.844Z,101050.37
2019-01-05T01:02:30.319Z,101044.23
2019-01-05T01:05:30.073Z,101037.58
2019-01-05T01:08:29.054Z,101036.58
2019-01-05T01:11:19.464Z,101027.50
2019-01-05T01:14:10.077Z,101009.00
2019-01-05T01:17:07.797Z,101012.98
2019-01-05T01:20:08.626Z,101012.56
2019-01-05T01:22:50.636Z,101008.43
2019-01-05T01:25:36.026Z,101007.78
2019-01-05T01:28:26.412Z,100998.14
2019-01-05T01:31:17.743Z,100998.18
2019-01-05T01:34:14.251Z,100993.72
2019-01-05T01:37:04.663Z,100987.23
2019-01-05T01:39:53.652Z,100984.73
2019-01-05T01:42:42.818Z,100977.45
2019-01-05T01:45:45.787Z,100969.21
2019-01-05T01:48:39.486Z,100958.32
2019-01-05T01:51:28.686Z,100951.73
2019-01-05T01:54:22.032Z,100944.80
2019-01-05T01:57:11.460Z,100944.86
2019-01-05T02:00:15.788Z,100942.86
2019-01-05T02:03:22.297Z,100940.59
2019-01-05T02:06:11.469Z,100934.63
2019-01-05T02:09:21.027Z,100927.00
2019-01-05T02:12:16.757Z,100914.63
2019-01-05T02:15:17.352Z,100913.80
2019-01-05T02:19:03.889Z,100907.71
2019-01-05T02:22:56.830Z,100896.55
2019-01-05T02:26:29.368Z,100894.45
2019-01-05T02:30:23.271Z,100888.44
2019-01-05T02:34:00.738Z,100877.11
2019-01-05T02:38:08.919Z,100876.81
2019-01-05T02:41:48.421Z,100860.77
2019-01-05T02:45:51.756Z,100853.03
2019-01-05T02:49:09.208Z,100842.27
2019-01-05T02:52:57.863Z,100836.77
2019-01-05T02:56:45.663Z,100823.06
2019-01-05T03:00:58.482Z,100806.27
2019-01-05T03:04:35.179Z,100805.00
2019-01-05T03:08:33.237Z,100787.22
2019-01-05T03:12:05.681Z,100794.81
2019-01-05T03:16:06.063Z,100780.13
2019-01-05T03:19:58.127Z,100779.47
2019-01-05T03:24:15.509Z,100763.63
2019-01-05T03:28:00.289Z,100755.20
2019-01-05T03:32:05.617Z,100744.78
2019-01-05T03:36:00.604Z,100735.16
2019-01-05T03:40:19.613Z,100732.59
2019-01-05T03:44:02.945Z,100733.98
2019-01-05T03:48:01.346Z,100726.17
2019-01-05T03:51:36.702Z,100718.23
2019-01-05T03:55:01.887Z,100719.59
2019-01-05T03:58:52.894Z,100717.41
2019-01-05T04:02:49.043Z,100710.48
2019-01-05T04:06:44.321Z,100701.69
2019-01-05T04:10:28.523Z,100688.25
2019-01-05T04:14:08.710Z,100687.01
2019-01-05T04:18:06.694Z,100674.67
2019-01-05T04:22:23.292Z,100662.05
2019-01-05T04:26:15.048Z,100662.91
2019-01-05T04:29:49.907Z,100650.06
2019-01-05T04:33:32.912Z,100649.22
2019-01-05T04:37:36.576Z,100646.45
2019-01-05T04:41:17.101Z,100631.55
2019-01-05T04:45:33.598Z,100644.42
2019-01-05T04:49:09.867Z,100652.48
2019-01-05T04:53:08.859Z,100650.31
2019-01-05T04:57:15.954Z,100654.98
2019-01-05T05:01:09.341Z,100664.37
2019-01-05T05:05:12.643Z,100657.14
2019-01-05T05:08:57.318Z,100667.09
2019-01-05T05:12:55.441Z,100664.22
2019-01-05T05:16:52.571Z,100671.67
2019-01-05T05:20:50.230Z,100667.14
2019-01-05T05:24:46.217Z,100664.03
2019-01-05T05:28:22.036Z,100662.34
2019-01-05T05:32:14.383Z,100663.22
2019-01-05T05:36:15.231Z,100665.59
2019-01-05T05:39:58.228Z,100662.15
2019-01-05T05:43:49.346Z,100662.69
2019-01-05T05:47:41.086Z,100663.64
2019-01-05T05:51:23.231Z,100664.98
2019-01-05T05:55:25.988Z,100658.98
2019-01-05T05:59:16.680Z,100661.69
2019-01-05T06:02:37.154Z,100652.58
2019-01-05T06:06:16.697Z,100648.19
2019-01-05T06:10:13.770Z,100637.35
2019-01-05T06:14:14.399Z,100640.03
2019-01-05T06:17:51.596Z,100612.47
2019-01-05T06:21:46.401Z,100607.08
2019-01-05T06:25:44.999Z,100607.85
2019-01-05T06:29:40.931Z,100604.39
2019-01-05T06:33:43.803Z,100593.70
2019-01-05T06:37:43.574Z,100585.37
2019-01-05T06:41:23.199Z,100590.50
2019-01-05T06:45:29.552Z,100585.85
2019-01-05T06:49:14.098Z,100586.83
2019-01-05T06:53:10.380Z,100605.17
2019-01-05T06:57:05.699Z,100636.99
2019-01-05T07:01:17.265Z,100649.98
2019-01-05T07:05:16.995Z,100651.52
2019-01-05T07:09:06.717Z,100660.39
2019-01-05T07:12:51.743Z,100670.44
2019-01-05T07:16:51.686Z,100668.59
2019-01-05T07:20:58.475Z,100664.06
2019-01-05T07:24:43.967Z,100660.31
2019-01-05T07:28:26.907Z,100677.14
2019-01-05T07:32:30.098Z,100684.73
2019-01-05T07:36:30.419Z,100685.03
2019-01-05T07:40:37.099Z,100689.62
2019-01-05T07:44:32.628Z,100694.48
2019-01-05T07:48:19.544Z,100690.44
2019-01-05T07:52:24.056Z,100692.02
2019-01-05T07:56:07.438Z,100694.77
2019-01-05T07:59:33.024Z,100712.16
2019-01-05T08:03:32.972Z,100716.42
2019-01-05T08:07:15.229Z,100721.50
2019-01-05T08:11:41.738Z,100722.80
2019-01-05T08:15:39.967Z,100734.27
2019-01-05T08:20:11.155Z,100738.16
2019-01-05T08:24:09.715Z,100757.09
2019-01-05T08:28:14.647Z,100763.78
2019-01-05T08:32:02.529Z,100763.41
2019-01-05T08:36:08.070Z,100771.30
2019-01-05T08:39:55.937Z,100766.73
2019-01-05T08:44:08.568Z,100773.72
2019-01-05T08:48:05.029Z,100776.25
2019-01-05T08:51:56.821Z,100781.08
2019-01-05T08:56:00.613Z,100786.11
2019-01-05T09:00:01.164Z,100788.77
2019-01-05T09:03:47.100Z,100793.30
2019-01-05T09:07:57.660Z,100798.90
2019-01-05T09:11:38.297Z,100809.16
2019-01-05T09:15:10.966Z,100812.55
2019-01-05T09:18:47.939Z,100811.48
2019-01-05T09:22:36.062Z,100817.37
2019-01-05T09:26:30.310Z,100828.15
2019-01-05T09:30:21.834Z,100824.55
2019-01-05T09:34:14.797Z,100837.97
2019-01-05T09:38:12.300Z,100837.97
2019-01-05T09:42:05.676Z,100842.50
2019-01-05T09:46:03.360Z,100843.66
2019-01-05T09:49:48.631Z,100841.16
2019-01-05T09:54:07.843Z,100848.33
2019-01-05T09:58:08.414Z,100855.92
2019-01-05T10:02:02.040Z,100863.38
2019-01-05T10:05:43.814Z,100868.44
2019-01-05T10:10:06.449Z,100874.95
2019-01-05T10:13:45.835Z,100870.86
2019-01-05T10:17:33.489Z,100879.45
2019-01-05T10:21:32.421Z,100877.14
2019-01-05T10:25:37.995Z,100895.86
2019-01-05T10:29:41.133Z,100887.98
2019-01-05T10:33:58.419Z,100894.21
2019-01-05T10:37:51.314Z,100899.20
2019-01-05T10:41:58.364Z,100907.91
2019-01-05T10:45:41.147Z,100904.34
2019-01-05T10:49:40.036Z,100917.35
2019-01-05T10:53:41.652Z,100918.93
2019-01-05T10:57:35.229Z,100924.41
2019-01-05T11:01:23.499Z,100917.14
2019-01-05T11:05:12.998Z,100930.92
2019-01-05T11:09:05.279Z,100925.78
2019-01-05T11:13:06.248Z,100926.61
2019-01-05T11:17:07.565Z,100929.89
2019-01-05T11:21:18.506Z,100935.32
2019-01-05T11:25:19.366Z,100937.63
2019-01-05T11:28:56.224Z,100938.94
2019-01-05T11:32:45.552Z,100939.91
2019-01-05T11:36:49.993Z,100942.53
2019-01-05T11:40:59.734Z,100941.19
2019-01-05T11:44:59.082Z,100943.48
2019-01-05T11:48:38.612Z,100954.04
2019-01-05T11:52:26.900Z,100956.28
2019-01-05T11:56:33.906Z,100965.84
2019-01-05T12:00:04.639Z,100957.41
2019-01-05T12:04:11.443Z,100965.14
2019-01-05T12:07:52.721Z,100964.66
2019-01-05T12:11:43.539Z,100959.90
2019-01-05T12:15:42.472Z,100961.80
2019-01-05T12:19:37.266Z,100973.89
2019-01-05T12:23:28.511Z,100969.42
2019-01-05T12:27:28.235Z,100975.04
2019-01-05T12:31:03.766Z,100977.26
2019-01-05T12:34:42.551Z,100977.58
2019-01-05T12:38:45.776Z,100982.55
2019-01-05T12:42:54.160Z,100988.74
2019-01-05T12:46:47.411Z,100990.70
2019-01-05T12:50:56.695Z,100998.08
2019-01-05T12:54:39.267Z,101011.67
2019-01-05T12:58:25.117Z,101013.02
2019-01-05T13:02:47.799Z,101008.82
2019-01-05T13:06:49.019Z,101020.41
2019-01-05T13:10:55.562Z,101016.75
2019-01-05T13:14:35.499Z,101020.55
2019-01-05T13:18:53.493Z,101023.51
2019-01-05T13:23:00.035Z,101032.53
2019-01-05T13:27:04.150Z,101043.79
2019-01-05T13:31:09.750Z,101057.45
2019-01-05T13:35:01.117Z,101048.78
2019-01-05T13:39:37.171Z,101054.56
2019-01-05T13:43:14.111Z,101046.72
2019-01-05T13:47:33.508Z,101071.59
2019-01-05T13:50:44.288Z,101073.03
2019-01-05T13:53:58.991Z,101082.89
2019-01-05T13:57:06.983Z,101095.97
2019-01-05T14:00:12.217Z,101100.42
2019-01-05T14:03:05.567Z,101104.80
2019-01-05T14:06:02.068Z,101110.38
2019-01-05T14:09:06.671Z,101120.30
2019-01-05T14:12:00.166Z,101120.16
2019-01-05T14:14:49.411Z,101118.20
2019-01-05T14:17:40.369Z,101121.16
2019-01-05T14:20:40.169Z,101124.17
2019-01-05T14:23:29.564Z,101123.36
2019-01-05T14:26:20.264Z,101125.67
2019-01-05T14:29:14.659Z,101128.47
2019-01-05T14:32:20.121Z,101133.48
2019-01-05T14:35:22.820Z,101129.97
2019-01-05T14:38:13.224Z,101140.97
2019-01-05T14:41:09.519Z,101131.69
2019-01-05T14:44:03.041Z,101135.44
2019-01-05T14:46:53.542Z,101127.66
2019-01-05T14:49:46.693Z,101132.21
2019-01-05T14:52:35.854Z,101131.17
2019-01-05T14:55:24.806Z,101139.00
2019-01-05T14:58:14.108Z,101145.78
2019-01-05T15:01:12.849Z,101154.24
2019-01-05T15:04:12.585Z,101152.09
2019-01-05T15:07:05.793Z,101154.33
2019-01-05T15:10:05.202Z,101153.05
2019-01-05T15:12:54.517Z,101160.55
2019-01-05T15:15:43.799Z,101162.42
2019-01-05T15:18:33.135Z,101171.94
2019-01-05T15:21:26.084Z,101168.44
2019-01-05T15:24:15.393Z,101174.84
2019-01-05T15:27:05.890Z,101177.61
2019-01-05T15:29:55.263Z,101183.23
2019-01-05T15:32:51.895Z,101183.08
2019-01-05T15:35:40.986Z,101179.33
2019-01-05T15:38:43.379Z,101189.26
2019-01-05T15:41:32.700Z,101188.25
2019-01-05T15:44:23.158Z,101190.28
2019-01-05T15:47:16.434Z,101210.97
2019-01-05T15:50:19.348Z,101205.95
2019-01-05T15:53:12.694Z,101209.87
2019-01-05T15:56:03.124Z,101213.11
2019-01-05T15:58:59.470Z,101220.48
2019-01-05T16:01:57.040Z,101222.51
2019-01-05T16:04:53.665Z,101221.34
2019-01-05T16:07:56.148Z,101219.17
2019-01-05T16:10:45.315Z,101224.31
2019-01-05T16:13:34.470Z,101227.41
2019-01-05T16:16:40.231Z,101237.11
2019-01-05T16:19:30.401Z,101250.11
2019-01-05T16:22:22.564Z,101248.66
2019-01-05T16:25:26.741Z,101252.67
2019-01-05T16:28:23.166Z,101252.12
2019-01-05T16:31:17.574Z,101251.64
2019-01-05T16:34:22.646Z,101252.91
2019-01-05T16:37:14.096Z,101248.98
2019-01-05T16:40:16.634Z,101246.31
2019-01-05T16:43:11.447Z,101241.85
2019-01-05T16:46:10.849Z,101248.69
2019-01-05T16:49:01.545Z,101257.31
2019-01-05T16:52:16.436Z,101257.88
2019-01-05T16:55:10.140Z,101262.97
2019-01-05T16:58:09.411Z,101261.61
2019-01-05T17:01:09.194Z,101260.37
2019-01-05T17:04:10.776Z,101271.98
2019-01-05T17:07:01.218Z,101260.48
2019-01-05T17:09:49.724Z,101264.56
2019-01-05T17:12:50.388Z,101263.84
2019-01-05T17:16:25.502Z,101260.02
2019-01-05T17:19:19.358Z,101256.48
2019-01-05T17:22:05.351Z,101254.83
2019-01-05T17:25:01.997Z,101259.22
2019-01-05T17:27:51.401Z,101256.27
2019-01-05T17:30:41.809Z,101267.19
2019-01-05T17:33:33.294Z,101262.70
2019-01-05T17:36:23.974Z,101270.20
2019-01-05T17:39:14.966Z,101276.12
2019-01-05T17:42:17.840Z,101274.58
2019-01-05T17:45:08.232Z,101279.55
2019-01-05T17:47:57.359Z,101291.97
2019-01-05T17:51:03.375Z,101283.23
2019-01-05T17:54:02.784Z,101291.78
2019-01-05T17:57:08.549Z,101287.06
2019-01-05T18:00:01.769Z,101294.30
2019-01-05T18:03:04.492Z,101295.09
2019-01-05T18:05:53.213Z,101292.31
2019-01-05T18:08:52.954Z,101291.94
2019-01-05T18:11:42.275Z,101298.47
2019-01-05T18:14:31.345Z,101301.11
2019-01-05T18:17:15.025Z,101305.64
2019-01-05T18:20:04.352Z,101306.95
2019-01-05T18:22:54.807Z,101317.82
2019-01-05T18:25:57.300Z,101319.70
2019-01-05T18:28:46.607Z,101322.81
2019-01-05T18:31:46.988Z,101317.55
2019-01-05T18:34:33.679Z,101336.38
2019-01-05T18:37:23.173Z,101331.17
2019-01-05T18:40:22.733Z,101330.11
2019-01-05T18:43:24.220Z,101334.81
2019-01-05T18:46:30.015Z,101336.89
2019-01-05T18:49:19.179Z,101333.52
2019-01-05T18:52:08.265Z,101337.70
2019-01-05T18:54:57.303Z,101337.00
2019-01-05T18:57:46.673Z,101347.16
2019-01-05T19:00:36.811Z,101348.55
2019-01-05T19:03:33.491Z,101348.76
2019-01-05T19:06:37.264Z,101355.33
2019-01-05T19:09:28.738Z,101359.01
2019-01-05T19:12:19.470Z,101364.58
2019-01-05T19:15:16.038Z,101373.47
2019-01-05T19:18:13.390Z,101371.95
2019-01-05T19:21:15.971Z,101383.20
2019-01-05T19:24:16.089Z,101382.91
2019-01-05T19:27:05.157Z,101400.75
2019-01-05T19:29:55.751Z,101402.25
2019-01-05T19:32:44.854Z,101400.83
2019-01-05T19:35:53.992Z,101405.21
2019-01-05T19:38:48.335Z,101412.50
2019-01-05T19:41:34.301Z,101422.64
2019-01-05T19:44:23.502Z,101411.41
2019-01-05T19:47:25.980Z,101418.46
2019-01-05T19:50:31.541Z,101412.52
2019-01-05T19:53:37.221Z,101422.61
2019-01-05T19:57:02.527Z,101425.28
2019-01-05T20:00:29.948Z,101420.63
2019-01-05T20:04:39.144Z,101430.72
2019-01-05T20:08:15.045Z,101427.00
2019-01-05T20:11:05.507Z,101429.90
2019-01-05T20:13:54.613Z,101429.28
2019-01-05T20:16:48.101Z,101428.02
2019-01-05T20:19:37.395Z,101429.50
2019-01-05T20:22:26.611Z,101434.48
2019-01-05T20:25:23.094Z,101431.11
2019-01-05T20:28:12.170Z,101435.22
2019-01-05T20:31:11.749Z,101431.11
2019-01-05T20:34:20.573Z,101431.33
2019-01-05T20:37:13.964Z,101428.04
2019-01-05T20:39:53.203Z,101442.38
2019-01-05T20:42:46.669Z,101439.48
2019-01-05T20:45:39.875Z,101435.00
2019-01-05T20:48:39.377Z,101432.02
2019-01-05T20:51:28.524Z,101429.83
2019-01-05T20:54:35.265Z,101433.30
2019-01-05T20:57:25.682Z,101441.80
2019-01-05T21:00:14.785Z,101451.34
2019-01-05T21:02:59.285Z,101453.61
2019-01-05T21:05:49.779Z,101444.16
2019-01-05T21:08:44.689Z,101437.40
2019-01-05T21:11:33.960Z,101444.88
2019-01-05T21:14:23.210Z,101439.78
2019-01-05T21:17:12.244Z,101442.98
2019-01-05T21:20:02.678Z,101440.47
2019-01-05T21:22:46.439Z,101447.35
2019-01-05T21:25:42.940Z,101442.38
2019-01-05T21:28:36.427Z,101451.95
2019-01-05T21:31:30.040Z,101455.52
2019-01-05T21:34:17.854Z,101449.45
2019-01-05T21:37:07.510Z,101450.93
2019-01-05T21:39:58.012Z,101448.65
2019-01-05T21:43:03.322Z,101450.63
2019-01-05T21:46:12.046Z,101458.20
2019-01-05T21:49:14.650Z,101462.66
2019-01-05T21:52:11.189Z,101460.19
2019-01-05T21:55:00.488Z,101464.75
2019-01-05T21:58:04.437Z,101456.41
2019-01-05T22:00:52.699Z,101460.09
2019-01-05T22:03:52.304Z,101459.44
2019-01-05T22:06:44.058Z,101465.05
2019-01-05T22:09:32.511Z,101473.93
2019-01-05T22:12:35.424Z,101475.38
2019-01-05T22:15:26.923Z,101480.70
2019-01-05T22:18:35.505Z,101481.88
2019-01-05T22:21:25.975Z,101482.09
2019-01-05T22:24:19.570Z,101481.41
2019-01-05T22:27:25.345Z,101482.81
2019-01-05T22:30:14.665Z,101484.45
2019-01-05T22:33:30.881Z,101491.15
2019-01-05T22:36:36.665Z,101483.64
2019-01-05T22:39:46.203Z,101488.27
2019-01-05T22:42:38.399Z,101486.73
2019-01-05T22:45:29.197Z,101503.95
2019-01-05T22:48:15.647Z,101494.31
2019-01-05T22:51:06.182Z,101503.04
2019-01-05T22:53:55.505Z,101496.96
2019-01-05T22:56:53.652Z,101494.67
2019-01-05T22:59:53.354Z,101503.61
2019-01-05T23:02:50.111Z,101497.44
2019-01-05T23:05:42.522Z,101503.05
2019-01-05T23:08:31.737Z,101492.83
2019-01-05T23:11:32.623Z,101499.52
2019-01-05T23:14:29.002Z,101499.13
2019-01-05T23:17:22.610Z,101494.16
2019-01-05T23:20:12.129Z,101486.97
2019-01-05T23:23:02.578Z,101493.26
2019-01-05T23:26:05.213Z,101486.47
2019-01-05T23:29:10.841Z,101491.48
2019-01-05T23:32:00.815Z,101501.52
2019-01-05T23:34:43.772Z,101495.59
2019-01-05T23:37:37.168Z,101501.11
2019-01-05T23:40:26.481Z,101500.41
2019-01-05T23:43:12.322Z,101502.45
2019-01-05T23:46:08.885Z,101510.42
2019-01-05T23:49:08.613Z,101513.08
2019-01-05T23:51:58.040Z,101515.59
2019-01-05T23:55:00.732Z,101518.91
2019-01-05T23:57:51.222Z,101516.14
